Terminal Aerodrome Forecast
Issued by NWS Wilmington, OH

Current Version | Previous Version | Graphics & Text | Print | Product List | Glossary On
Versions: 1 2 3 4 5 6 7 8 9 10 11 12 13 14
000
FTUS41 KILN 022300
TAFILN
TAF
KILN 022322Z 0300/0324 23004KT P6SM SCT090
     FM030400 VRB02KT P6SM BKN250
     FM031300 21007KT P6SM SCT250
     FM031700 21010KT P6SM SCT060=

USA.gov is the U.S. government's official web portal to all federal, state and local government web resources and services.